Hiram, Kentucky
Current Conditions -  °F | °C
As of 8:35 PM on Monday 24 Nov 2014 (Local Time) from KI35 Reporting Station
Clear Clear  
Wind Chill: 54°   Ceiling: Unl
Heat Index: 54°   Visibility: 10mi
Dew Point: 32°   Wind: 5mph
Humidity: 44%   Direction: 260°W
Pressure: 29.89"   Gusts: NA
Location:  36.9548°N, 82.9776°W
Report Text: KI35 250135Z AUTO 26004KT 10SM CLR 12/00 A2989 RMK AO1
Loading
Personal Weather Stations






























Interactive Weather Map New forecast layout! Learn more

10-Day Weather Forecast

Advertisements
Track Severe Weather on mobile